Time;durP1;ratioP1;P1;durP2;ratioP2;P2;SDS_P1;SDS_P2;PMS_P1;PMS_P2;Temp;Humidity;BMP_temperature;BMP_pressure;BME280_temperature;BME280_humidity;BME280_pressure;Samples;Min_cycle;Max_cycle;Signal;HPM_P1;HPM_P2
2022/06/17 00:01:12;;;;;;;6.68;2.40;;;;;;;18.64;55.41;99601.19;4944219;28;20088;-94
2022/06/17 00:03:38;;;;;;;4.32;2.40;;;;;;;18.38;58.32;99580.88;4944521;28;20026;-93
2022/06/17 00:06:03;;;;;;;5.50;2.42;;;;;;;18.52;56.40;99586.22;4944606;28;20030;-94
2022/06/17 00:08:36;;;;;;;9.65;2.20;;;;;;;18.52;55.74;99575.31;4944339;28;20026;-94
2022/06/17 00:11:02;;;;;;;3.47;2.08;;;;;;;18.69;54.31;99595.56;4944260;28;20030;-93
2022/06/17 00:13:27;;;;;;;8.70;2.45;;;;;;;18.60;53.92;99579.19;4944106;28;20069;-94
2022/06/17 00:15:53;;;;;;;3.78;2.17;;;;;;;18.49;58.17;99586.03;4944412;28;20035;-94
2022/06/17 00:18:19;;;;;;;3.60;2.45;;;;;;;18.34;58.26;99584.53;4944489;28;20034;-95
2022/06/17 00:20:44;;;;;;;5.82;3.17;;;;;;;18.14;59.58;99591.38;4944204;28;20034;-92
2022/06/17 00:23:15;;;;;;;3.83;2.40;;;;;;;18.21;58.77;99583.53;4943833;28;20046;-94
2022/06/17 00:25:41;;;;;;;6.90;2.53;;;;;;;18.27;58.65;99586.94;4944070;28;20404;-93
2022/06/17 00:28:23;;;;;;;4.95;2.85;;;;;;;18.04;60.36;99578.81;4943766;28;20035;-93
2022/06/17 00:30:48;;;;;;;;;;;;;;;17.99;60.01;99600.72;4945527;28;20031;-94
2022/06/17 00:33:15;;;;;;;4.28;2.58;;;;;;;17.90;59.66;99587.06;4959313;28;19918;-94
2022/06/17 00:35:48;;;;;;;7.68;2.65;;;;;;;17.91;59.49;99583.25;4943961;28;20038;-93
2022/06/17 00:38:41;;;;;;;8.88;2.60;;;;;;;17.97;59.94;99587.44;4944164;28;20056;-93
2022/06/17 00:41:16;;;;;;;6.65;2.55;;;;;;;17.65;60.09;99576.78;4961963;28;20109;-94
2022/06/17 00:43:44;;;;;;;5.93;2.15;;;;;;;17.75;59.34;99582.78;4960102;28;20030;-92
2022/06/17 00:46:35;;;;;;;6.68;2.33;;;;;;;17.84;59.10;99582.88;4944314;28;20031;-93
2022/06/17 00:49:29;;;;;;;21.67;3.85;;;;;;;17.83;59.27;99584.00;4959900;28;20034;-93
2022/06/17 00:52:00;;;;;;;15.57;2.92;;;;;;;17.89;57.85;99580.03;4959419;28;20026;-93
2022/06/17 00:54:32;;;;;;;10.02;2.33;;;;;;;18.04;51.89;99583.47;4943271;28;20062;-93
2022/06/17 00:56:58;;;;;;;5.50;1.80;;;;;;;18.15;50.24;99582.06;4943444;28;20034;-93
2022/06/17 00:59:23;;;;;;;7.07;2.45;;;;;;;18.05;57.87;99583.13;4943393;28;20045;-93
2022/06/17 01:02:05;;;;;;;5.45;2.45;;;;;;;17.91;57.05;99557.94;4943078;28;20042;-94
2022/06/17 01:04:40;;;;;;;7.18;2.55;;;;;;;17.94;54.79;99563.53;4943309;28;20031;-93
2022/06/17 01:07:15;;;;;;;7.30;2.38;;;;;;;17.81;57.06;99569.06;4943927;28;20452;-93
2022/06/17 01:09:58;;;;;;;7.03;2.97;;;;;;;17.71;58.78;99576.34;4958822;28;20034;-93
2022/06/17 01:12:42;;;;;;;8.13;2.40;;;;;;;17.61;58.93;99556.75;4947010;28;20027;-93
2022/06/17 01:15:08;;;;;;;7.40;2.47;;;;;;;17.64;59.20;99572.44;4944044;28;20035;-93
2022/06/17 01:17:35;;;;;;;4.55;2.47;;;;;;;17.55;59.72;99573.19;4942939;28;20027;-93
2022/06/17 01:20:01;;;;;;;8.95;2.50;;;;;;;17.33;59.42;99559.59;4958838;28;20042;-92
2022/06/17 01:22:27;;;;;;;5.57;2.35;;;;;;;17.41;58.60;99566.22;4942148;28;20027;-93
2022/06/17 01:25:07;;;;;;;8.88;2.83;;;;;;;17.42;58.57;99548.78;4975098;28;20035;-92
2022/06/17 01:27:35;;;;;;;5.85;2.33;;;;;;;17.48;59.06;99552.97;4944851;28;20026;-94
2022/06/17 01:30:01;;;;;;;9.43;2.55;;;;;;;17.15;59.45;99529.53;4943164;28;20453;-94
2022/06/17 01:32:29;;;;;;;7.50;2.60;;;;;;;17.20;59.11;99535.97;4942598;28;20062;-92
2022/06/17 01:34:55;;;;;;;5.30;2.53;;;;;;;17.16;59.38;99525.72;4942766;28;20448;-93
2022/06/17 01:37:20;;;;;;;5.50;2.10;;;;;;;17.35;58.77;99543.78;4942381;28;20038;-93
2022/06/17 01:39:46;;;;;;;4.65;2.00;;;;;;;17.13;59.72;99533.66;4942760;28;20026;-92
2022/06/17 01:42:11;;;;;;;5.00;2.20;;;;;;;17.03;59.45;99537.41;4943411;28;20090;-92
2022/06/17 01:44:38;;;;;;;5.78;2.40;;;;;;;16.98;59.79;99540.28;4942609;28;20113;-93
2022/06/17 01:47:05;;;;;;;5.65;2.30;;;;;;;16.87;57.25;99538.88;4942440;28;20035;-93
2022/06/17 01:49:39;;;;;;;6.03;2.17;;;;;;;16.89;56.82;99540.19;4942763;28;20092;-92
2022/06/17 01:52:08;;;;;;;4.18;2.10;;;;;;;16.96;56.63;99548.72;4958988;28;20477;-93
2022/06/17 01:54:38;;;;;;;4.78;2.05;;;;;;;16.95;56.67;99525.38;4942367;28;20057;-93
2022/06/17 01:57:04;;;;;;;7.07;2.10;;;;;;;17.04;56.68;99533.59;4958729;28;20030;-93
2022/06/17 01:59:33;;;;;;;3.85;2.13;;;;;;;16.94;56.81;99512.88;4958300;28;20031;-93
2022/06/17 02:01:59;;;;;;;4.90;2.10;;;;;;;16.91;56.45;99521.66;4942419;28;20031;-93
2022/06/17 02:04:27;;;;;;;3.92;2.10;;;;;;;17.06;56.80;99527.88;4941861;28;20042;-93
2022/06/17 02:07:16;;;;;;;4.10;2.05;;;;;;;17.03;57.39;99512.94;4942137;28;20033;-93
2022/06/17 02:09:42;;;;;;;10.40;2.53;;;;;;;16.79;58.61;99513.19;4960612;28;20109;-93
2022/06/17 02:12:08;;;;;;;5.50;2.10;;;;;;;16.80;58.58;99520.22;4942054;28;20070;-92
2022/06/17 02:14:33;;;;;;;4.78;2.45;;;;;;;16.81;58.44;99513.72;4942155;28;20030;-94
2022/06/17 02:16:59;;;;;;;5.13;2.45;;;;;;;16.61;59.11;99501.34;4941762;28;20039;-93
2022/06/17 02:19:25;;;;;;;5.13;2.28;;;;;;;16.61;60.42;99511.44;4942043;28;20061;-93
2022/06/17 02:22:12;;;;;;;7.97;2.38;;;;;;;16.51;61.08;99515.16;4942477;28;20122;-93
2022/06/17 02:24:38;;;;;;;18.35;3.55;;;;;;;16.48;61.80;99529.38;4960140;28;20038;-93
2022/06/17 02:27:06;;;;;;;9.23;2.88;;;;;;;16.35;61.56;99517.38;4958000;28;20026;-94
2022/06/17 02:29:32;;;;;;;11.93;3.03;;;;;;;16.29;61.80;99514.00;4942251;28;20121;-93
2022/06/17 02:31:58;;;;;;;12.27;4.47;;;;;;;16.16;61.49;99512.88;4960722;28;20050;-94
2022/06/17 02:34:23;;;;;;;10.55;2.75;;;;;;;16.24;60.21;99530.38;4944736;28;20034;-93
2022/06/17 02:36:53;;;;;;;11.52;2.42;;;;;;;16.20;59.49;99526.66;4944591;28;20038;-93
2022/06/17 02:39:18;;;;;;;5.43;2.60;;;;;;;16.40;58.29;99532.81;4960625;28;20469;-94
2022/06/17 02:41:45;;;;;;;8.98;2.50;;;;;;;16.15;58.37;99518.63;4960702;28;20030;-92
2022/06/17 02:44:17;;;;;;;7.15;2.70;;;;;;;16.14;58.17;99517.00;4944885;28;20026;-92
2022/06/17 02:46:42;;;;;;;;;;;;;;;16.20;59.00;99531.28;4945862;28;20037;-92
2022/06/17 02:49:13;;;;;;;11.38;2.30;;;;;;;16.01;59.26;99526.75;4960742;28;20372;-93
2022/06/17 02:51:39;;;;;;;6.57;2.47;;;;;;;15.94;59.25;99521.72;4945189;28;20034;-92
2022/06/17 02:54:05;;;;;;;9.07;2.95;;;;;;;15.97;59.61;99520.31;4944583;28;20033;-92
2022/06/17 02:56:31;;;;;;;10.15;2.55;;;;;;;15.90;59.68;99511.75;4944842;28;20019;-93
2022/06/17 02:59:21;;;;;;;5.80;2.15;;;;;;;16.04;59.83;99525.34;4944950;28;20042;-93
2022/06/17 03:01:47;;;;;;;4.97;2.70;;;;;;;16.22;59.62;99537.22;4945725;28;20023;-93
2022/06/17 03:04:14;;;;;;;7.80;2.75;;;;;;;16.25;60.01;99526.56;4944548;28;20037;-92
2022/06/17 03:06:42;;;;;;;6.60;2.55;;;;;;;16.31;60.06;99541.66;4944384;28;20061;-93
2022/06/17 03:09:24;;;;;;;12.77;3.25;;;;;;;16.21;60.16;99532.88;4944736;28;20038;-93
2022/06/17 03:12:11;;;;;;;9.07;2.75;;;;;;;16.05;60.50;99522.31;4945686;28;20069;-93
2022/06/17 03:14:40;;;;;;;9.23;2.85;;;;;;;16.16;60.36;99529.19;4960218;28;20030;-93
2022/06/17 03:17:07;;;;;;;11.38;3.00;;;;;;;16.29;60.53;99540.31;4945420;28;20060;-92
2022/06/17 03:19:33;;;;;;;11.88;3.80;;;;;;;16.29;61.20;99532.19;4944438;28;20061;-92
2022/06/17 03:21:58;;;;;;;10.38;2.88;;;;;;;16.29;60.85;99530.28;4944600;28;20053;-95
2022/06/17 03:24:42;;;;;;;9.07;2.60;;;;;;;16.38;61.34;99546.69;4960384;28;20026;-94
2022/06/17 03:27:14;;;;;;;10.13;2.65;;;;;;;16.30;61.23;99540.03;4976663;28;20023;-93
2022/06/17 03:29:39;;;;;;;;;;;;;;;16.38;62.20;99540.44;4945620;28;20038;-93
2022/06/17 03:32:18;;;;;;;11.98;3.08;;;;;;;16.20;62.32;99523.13;4957164;28;20307;-93
2022/06/17 03:34:49;;;;;;;4.13;2.45;;;;;;;16.27;63.09;99531.69;4943719;28;20030;-93
2022/06/17 03:37:37;;;;;;;8.02;3.00;;;;;;;16.24;63.07;99524.94;4942021;28;20034;-93
2022/06/17 03:40:04;;;;;;;10.20;2.78;;;;;;;16.38;62.72;99538.53;4956454;28;20034;-94
2022/06/17 03:42:35;;;;;;;7.68;3.10;;;;;;;16.31;62.99;99521.81;4940473;28;20030;-94
2022/06/17 03:45:14;;;;;;;13.60;3.22;;;;;;;16.48;62.28;99527.44;4924256;28;20398;-94
2022/06/17 03:47:47;;;;;;;6.95;3.28;;;;;;;16.64;62.61;99544.22;4929422;28;20034;-95
2022/06/17 03:50:32;;;;;;;7.57;3.47;;;;;;;16.56;62.03;99518.59;4945191;28;20031;-95
2022/06/17 03:53:47;;;;;;;7.90;4.15;;;;;;;16.75;61.50;99525.81;4931568;28;20541;-96
2022/06/17 03:59:47;;;;;;;14.05;4.50;;;;;;;16.83;61.43;99514.22;5203694;23;20069;-95
2022/06/17 04:02:29;;;;;;;;;;;;;;;17.11;61.08;99541.34;4983354;28;20026;-96
2022/06/17 04:05:00;;;;;;;12.60;3.95;;;;;;;16.95;60.93;99514.50;4996731;28;19918;-96
2022/06/17 04:07:28;;;;;;;7.25;3.13;;;;;;;17.03;60.53;99514.88;4980934;28;20034;-95
2022/06/17 04:09:54;;;;;;;9.70;3.42;;;;;;;17.13;59.89;99515.41;4965469;28;20030;-96
2022/06/17 04:12:31;;;;;;;5.85;3.15;;;;;;;17.27;59.65;99520.03;4980299;28;20026;-95
2022/06/17 04:15:05;;;;;;;13.13;3.50;;;;;;;17.36;59.30;99524.38;4967812;28;20026;-95
2022/06/17 04:17:48;;;;;;;7.50;2.50;;;;;;;17.42;56.77;99524.28;4999079;28;20113;-93
2022/06/17 04:20:33;;;;;;;9.73;2.80;;;;;;;17.64;56.76;99537.06;4903814;29;20122;-94
2022/06/17 04:23:05;;;;;;;8.52;2.60;;;;;;;17.64;56.09;99523.44;4885419;29;20543;-96
2022/06/17 04:25:56;;;;;;;5.07;2.60;;;;;;;17.56;55.48;99514.91;4900907;29;20470;-96
2022/06/17 04:28:27;;;;;;;4.30;2.40;;;;;;;17.62;54.67;99512.06;4903156;29;20032;-94
2022/06/17 04:30:57;;;;;;;5.57;2.30;;;;;;;17.70;54.84;99511.28;4901997;29;20040;-94
2022/06/17 04:33:31;;;;;;;6.68;2.38;;;;;;;17.72;54.79;99506.34;4902070;29;20064;-95
2022/06/17 04:36:03;;;;;;;5.43;2.15;;;;;;;17.81;54.76;99512.66;4901559;29;20045;-95
2022/06/17 04:38:28;;;;;;;;;;;;;;;18.07;54.72;99540.03;4902960;29;20044;-94
2022/06/17 04:40:59;;;;;;;9.15;2.88;;;;;;;17.94;54.53;99508.25;4902743;29;19912;-93
2022/06/17 04:43:39;;;;;;;15.05;4.05;;;;;;;18.14;54.97;99525.97;4904902;29;20041;-94
2022/06/17 04:46:16;;;;;;;10.90;3.80;;;;;;;18.08;53.81;99506.22;4886831;29;20037;-96
2022/06/17 04:48:42;;;;;;;11.23;3.33;;;;;;;18.26;53.11;99509.00;4900241;29;20036;-93
2022/06/17 04:51:10;;;;;;;6.68;3.00;;;;;;;18.40;52.01;99528.75;4925051;28;20491;-96
2022/06/17 04:53:42;;;;;;;8.95;2.63;;;;;;;18.33;52.84;99512.88;4963620;28;20030;-92
2022/06/17 04:56:08;;;;;;;9.38;3.40;;;;;;;18.50;52.58;99522.22;4980888;28;20034;-94
2022/06/17 04:58:33;;;;;;;7.60;2.85;;;;;;;18.54;52.77;99523.19;4964475;28;20096;-92
2022/06/17 05:00:59;;;;;;;5.57;2.60;;;;;;;18.68;52.66;99537.50;4959113;28;20031;-93
2022/06/17 05:03:28;;;;;;;6.97;5.63;;;;;;;18.65;52.68;99526.41;4961823;28;20117;-92
2022/06/17 05:05:55;;;;;;;8.57;3.47;;;;;;;18.72;52.85;99535.75;4963326;28;20109;-93
2022/06/17 05:08:23;;;;;;;5.95;2.65;;;;;;;18.78;52.64;99539.94;4959468;28;20097;-92
2022/06/17 05:10:56;;;;;;;10.75;3.13;;;;;;;18.74;52.53;99522.59;4977337;28;20027;-93
2022/06/17 05:13:57;;;;;;;4.68;2.63;;;;;;;19.01;51.85;99553.47;4960455;28;20035;-90
2022/06/17 05:16:24;;;;;;;6.05;3.30;;;;;;;19.07;51.22;99526.78;4972484;28;20042;-94
2022/06/17 05:18:52;;;;;;;8.88;3.50;;;;;;;19.22;51.39;99534.50;4980365;28;20503;-94
2022/06/17 05:21:23;;;;;;;8.48;2.70;;;;;;;19.36;51.30;99547.97;4960646;28;20047;-92
2022/06/17 05:23:49;;;;;;;6.60;2.42;;;;;;;19.43;50.71;99545.56;4975653;28;20121;-94
2022/06/17 05:26:20;;;;;;;7.22;2.45;;;;;;;19.51;50.22;99535.75;4943028;28;20116;-94
2022/06/17 05:28:47;;;;;;;10.15;3.83;;;;;;;19.65;50.04;99532.81;4975599;28;20027;-93
2022/06/17 05:31:18;;;;;;;7.03;2.92;;;;;;;19.70;49.73;99535.41;4959214;28;20035;-93
2022/06/17 05:33:46;;;;;;;5.28;1.95;;;;;;;19.72;49.02;99508.59;4975205;28;20030;-91
2022/06/17 05:36:11;;;;;;;8.13;2.90;;;;;;;19.96;49.98;99535.31;4958604;28;20031;-92
2022/06/17 05:38:38;;;;;;;7.53;2.72;;;;;;;20.12;48.91;99550.06;4959163;28;20046;-92
2022/06/17 05:41:06;;;;;;;8.75;2.20;;;;;;;20.12;47.93;99530.94;4975048;28;20035;-92
2022/06/17 05:43:32;;;;;;;4.88;2.85;;;;;;;20.15;48.00;99530.28;4959987;28;20113;-95
2022/06/17 05:46:00;;;;;;;4.05;2.53;;;;;;;20.26;46.99;99527.19;4959689;28;20092;-96
2022/06/17 05:48:30;;;;;;;4.38;2.15;;;;;;;20.30;47.62;99522.66;4974035;28;20031;-93
2022/06/17 05:50:58;;;;;;;11.45;6.00;;;;;;;20.36;47.76;99515.88;4975369;28;20062;-94
2022/06/17 05:53:28;;;;;;;7.53;3.08;;;;;;;20.39;48.11;99507.78;4959274;28;20030;-92
2022/06/17 05:55:54;;;;;;;7.97;3.90;;;;;;;20.52;48.39;99516.09;4976112;28;20038;-93
2022/06/17 05:58:23;;;;;;;12.20;3.67;;;;;;;20.66;47.90;99516.66;4968510;28;20511;-94
2022/06/17 06:00:49;;;;;;;8.95;3.13;;;;;;;20.73;46.89;99503.28;4993578;28;20026;-93
2022/06/17 06:03:27;;;;;;;9.13;3.80;;;;;;;20.77;47.60;99498.72;4962662;28;20025;-93
2022/06/17 06:06:31;;;;;;;69.03;5.07;;;;;;;20.79;46.61;99488.25;4995381;28;20042;-95
2022/06/17 06:08:59;;;;;;;15.73;2.78;;;;;;;21.10;46.17;99495.22;4997724;28;20030;-94
2022/06/17 06:11:25;;;;;;;9.05;2.42;;;;;;;21.15;45.78;99492.28;4958727;28;20031;-91
2022/06/17 06:13:50;;;;;;;7.55;3.75;;;;;;;21.22;45.83;99496.44;4974235;28;20512;-94
2022/06/17 06:16:20;;;;;;;5.78;2.80;;;;;;;21.33;45.54;99492.13;4942111;28;20077;-94
2022/06/17 06:18:47;;;;;;;6.13;2.35;;;;;;;21.42;46.12;99494.78;4958951;28;20113;-95
2022/06/17 06:21:53;;;;;;;9.70;2.90;;;;;;;21.68;45.87;99514.50;4973036;28;20041;-94
2022/06/17 06:24:18;;;;;;;11.95;3.65;;;;;;;21.76;45.63;99512.81;4993439;28;20026;-93
2022/06/17 06:26:44;;;;;;;7.78;2.55;;;;;;;21.77;44.81;99482.31;4957726;28;20089;-93
2022/06/17 06:29:11;;;;;;;5.60;2.80;;;;;;;22.03;43.68;99505.88;4957809;28;20045;-91
2022/06/17 06:31:37;;;;;;;6.40;3.05;;;;;;;21.93;43.73;99476.16;4975310;28;20497;-91
2022/06/17 06:34:03;;;;;;;6.88;2.58;;;;;;;22.13;43.53;99494.44;4980717;28;20061;-94
2022/06/17 06:36:28;;;;;;;6.35;2.60;;;;;;;22.12;43.75;99481.91;4962718;28;20113;-93
2022/06/17 06:38:54;;;;;;;9.63;4.00;;;;;;;22.21;43.24;99470.81;4960843;28;20041;-89
2022/06/17 06:41:20;;;;;;;6.90;2.38;;;;;;;22.49;42.27;99487.34;4976359;28;20480;-91
2022/06/17 06:43:47;;;;;;;6.85;2.65;;;;;;;22.68;42.75;99496.94;4962092;28;20034;-92
2022/06/17 06:46:14;;;;;;;5.97;2.55;;;;;;;22.70;42.42;99470.75;4961175;28;20439;-92
2022/06/17 06:48:40;;;;;;;7.68;2.60;;;;;;;22.87;42.11;99480.66;4973700;28;20030;-89
2022/06/17 06:51:13;;;;;;;19.52;5.63;;;;;;;22.89;41.70;99455.56;4973889;28;20027;-90
2022/06/17 06:53:39;;;;;;;32.63;7.13;;;;;;;22.95;42.29;99460.50;4959009;28;20033;-91
2022/06/17 06:56:05;;;;;;;17.77;6.75;;;;;;;23.10;41.85;99475.44;4960995;28;20027;-92
2022/06/17 06:58:31;;;;;;;19.77;8.85;;;;;;;22.96;41.53;99450.28;4959543;28;20042;-94
2022/06/17 07:00:57;;;;;;;29.48;16.38;;;;;;;23.03;42.35;99442.28;4972863;28;20104;-93
2022/06/17 07:03:27;;;;;;;28.02;10.65;;;;;;;23.27;42.15;99468.03;4973819;28;20121;-94
2022/06/17 07:06:05;;;;;;;5.50;2.67;;;;;;;23.36;41.23;99455.72;4959699;28;20033;-94
2022/06/17 07:08:35;;;;;;;5.50;2.63;;;;;;;23.46;40.96;99459.91;4959591;28;20058;-94
2022/06/17 07:11:01;;;;;;;4.80;2.70;;;;;;;23.53;40.79;99449.13;4959357;28;20093;-93
2022/06/17 07:13:31;;;;;;;8.88;3.03;;;;;;;23.54;41.32;99439.69;4958992;28;20150;-93
2022/06/17 07:15:56;;;;;;;8.15;3.00;;;;;;;23.78;40.90;99454.44;4976358;28;20508;-93
2022/06/17 07:18:38;;;;;;;5.55;2.50;;;;;;;23.74;40.84;99450.78;4977409;28;20027;-95
2022/06/17 07:21:07;;;;;;;8.35;3.65;;;;;;;23.88;41.33;99434.66;4964092;28;20465;-93
2022/06/17 07:23:34;;;;;;;6.38;4.43;;;;;;;24.07;41.13;99438.63;4962338;28;20075;-93
2022/06/17 07:26:06;;;;;;;18.05;6.20;;;;;;;24.13;41.58;99437.19;4977928;28;20085;-92
2022/06/17 07:28:34;;;;;;;;;;;;;;;24.36;40.43;99454.66;4978924;28;20125;-92
2022/06/17 07:30:59;;;;;;;26.98;18.55;;;;;;;24.37;40.60;99442.47;4998168;28;20373;-94
2022/06/17 07:33:28;;;;;;;9.15;4.75;;;;;;;24.50;39.81;99434.91;4963517;28;20050;-93
2022/06/17 07:35:55;;;;;;;16.13;7.20;;;;;;;24.53;40.26;99428.69;4964374;28;20026;-94
2022/06/17 07:41:14;;;;;;;21.65;4.57;;;;;;;24.71;40.29;99437.31;4984509;28;20030;-92
2022/06/17 07:43:43;;;;;;;10.88;4.35;;;;;;;24.82;39.59;99443.06;4965590;28;20031;-95
2022/06/17 07:46:10;;;;;;;17.17;6.85;;;;;;;24.96;39.77;99439.78;4985736;28;20022;-93
2022/06/17 07:48:42;;;;;;;12.15;5.75;;;;;;;25.01;39.62;99418.25;4983613;28;20023;-94
2022/06/17 07:51:10;;;;;;;9.65;5.57;;;;;;;25.19;38.34;99418.59;4983722;28;20122;-94
2022/06/17 07:53:42;;;;;;;9.88;4.35;;;;;;;25.36;38.88;99439.41;4980296;28;20034;-95
2022/06/17 07:56:15;;;;;;;4.53;2.63;;;;;;;25.41;37.94;99427.25;4984291;28;20065;-95
2022/06/17 07:58:41;;;;;;;9.60;2.78;;;;;;;25.55;37.88;99437.75;4966105;28;20138;-94
2022/06/17 08:01:07;;;;;;;4.88;3.08;;;;;;;25.60;37.74;99438.22;4968203;28;20038;-92
2022/06/17 08:03:54;;;;;;;4.57;2.33;;;;;;;25.53;37.11;99416.06;4964814;28;20117;-95
2022/06/17 08:06:20;;;;;;;9.38;7.10;;;;;;;25.72;37.68;99428.97;4980610;28;20031;-95
2022/06/17 08:08:46;;;;;;;5.85;4.10;;;;;;;25.79;37.59;99439.31;4980654;28;20026;-92
2022/06/17 08:11:12;;;;;;;19.48;4.75;;;;;;;25.84;37.09;99425.22;4963764;28;20389;-90
2022/06/17 08:13:38;;;;;;;6.88;3.75;;;;;;;25.96;37.47;99429.75;4978502;28;20038;-89
2022/06/17 08:16:06;;;;;;;9.63;3.78;;;;;;;25.99;36.58;99426.28;4960221;28;20054;-94
2022/06/17 08:18:32;;;;;;;10.82;2.80;;;;;;;26.17;36.94;99430.09;4975513;28;20512;-94
2022/06/17 08:20:58;;;;;;;5.65;2.50;;;;;;;26.18;36.12;99428.13;4965192;28;20049;-93
2022/06/17 08:23:25;;;;;;;10.50;3.13;;;;;;;26.29;35.68;99431.81;4963972;28;20477;-91
2022/06/17 08:25:51;;;;;;;22.52;6.28;;;;;;;26.35;36.92;99427.56;4960679;28;20428;-93
2022/06/17 08:28:45;;;;;;;4.55;3.10;;;;;;;26.57;35.47;99433.41;4978370;28;20021;-94
2022/06/17 08:31:28;;;;;;;7.22;4.32;;;;;;;26.67;35.19;99432.75;4930309;28;20122;-96
2022/06/17 08:36:46;;;;;;;4.50;2.50;;;;;;;26.86;33.36;99425.47;4944562;29;20074;-93
2022/06/17 08:39:12;;;;;;;5.68;3.03;;;;;;;27.04;32.87;99440.31;4909109;29;20069;-92
2022/06/17 08:42:21;;;;;;;6.32;2.85;;;;;;;27.03;32.67;99430.41;4908012;29;20166;-94
2022/06/17 08:45:05;;;;;;;14.45;5.40;;;;;;;27.11;34.01;99437.59;4880519;29;20491;-94
2022/06/17 08:48:11;;;;;;;9.82;5.05;;;;;;;27.14;32.72;99441.56;4958783;29;20043;-94
2022/06/17 08:51:12;;;;;;;11.85;4.07;;;;;;;27.27;32.61;99428.31;4923913;29;20161;-94
2022/06/17 08:54:06;;;;;;;7.47;3.40;;;;;;;27.39;32.40;99436.31;4926018;29;20042;-93
2022/06/17 08:56:56;;;;;;;7.60;3.72;;;;;;;27.35;31.63;99418.91;4939898;29;20043;-94
2022/06/17 08:59:31;;;;;;;30.38;18.55;;;;;;;27.38;31.15;99407.09;4941155;29;20059;-95
2022/06/17 09:02:28;;;;;;;11.27;4.60;;;;;;;27.53;31.68;99428.16;4961011;28;20034;-94
2022/06/17 09:05:21;;;;;;;8.50;2.60;;;;;;;27.54;31.28;99427.00;4996796;28;20373;-93
2022/06/17 09:08:06;;;;;;;11.43;3.72;;;;;;;27.64;31.72;99428.25;4998540;28;20112;-94
2022/06/17 09:11:00;;;;;;;6.97;3.20;;;;;;;27.77;30.59;99423.22;4996283;28;20037;-95
2022/06/17 09:14:02;;;;;;;7.10;3.05;;;;;;;27.87;28.32;99427.28;4967104;28;20534;-95
2022/06/17 09:16:45;;;;;;;3.55;2.40;;;;;;;27.91;26.78;99422.56;4996050;28;20031;-93
2022/06/17 09:19:25;;;;;;;6.00;2.42;;;;;;;27.99;26.81;99429.72;4994687;28;20088;-94
2022/06/17 09:22:09;;;;;;;5.57;2.00;;;;;;;27.55;26.02;99400.13;4982416;28;20038;-94
2022/06/17 09:24:40;;;;;;;6.47;4.38;;;;;;;27.82;28.10;99409.03;5001105;28;20038;-95
2022/06/17 09:27:25;;;;;;;5.88;3.60;;;;;;;27.94;28.43;99391.34;4966312;28;20026;-96
2022/06/17 09:30:19;;;;;;;8.80;3.55;;;;;;;27.95;28.29;99379.09;4969081;28;20030;-95
2022/06/17 09:33:01;;;;;;;3.58;2.70;;;;;;;28.21;27.24;99402.97;4993666;28;20129;-94
2022/06/17 09:36:08;;;;;;;4.15;2.33;;;;;;;28.13;28.81;99382.75;4995883;28;20054;-95
2022/06/17 09:39:08;;;;;;;5.47;2.50;;;;;;;28.23;26.46;99391.53;4996902;28;20030;-96
2022/06/17 09:41:51;;;;;;;3.67;2.20;;;;;;;28.25;24.90;99386.41;4940208;29;20102;-93
2022/06/17 09:44:21;;;;;;;5.10;2.63;;;;;;;28.33;27.88;99391.59;4955716;28;20146;-94
2022/06/17 09:47:16;;;;;;;4.88;2.90;;;;;;;28.50;27.47;99405.94;4940112;29;20090;-95
2022/06/17 09:49:49;;;;;;;6.65;2.60;;;;;;;28.57;28.25;99405.94;4924994;29;20557;-94
2022/06/17 09:52:26;;;;;;;6.50;3.55;;;;;;;28.50;29.18;99401.19;4935138;29;20074;-95
2022/06/17 09:54:57;;;;;;;7.60;2.60;;;;;;;28.42;29.17;99402.31;4924424;29;20042;-95
2022/06/17 09:57:29;;;;;;;9.27;3.03;;;;;;;28.54;30.02;99409.50;4955692;29;20191;-93
2022/06/17 10:00:05;;;;;;;4.53;2.28;;;;;;;28.45;29.01;99389.63;4939590;29;20055;-92
2022/06/17 10:03:03;;;;;;;6.00;2.25;;;;;;;28.56;27.91;99405.16;4923936;29;20509;-92
2022/06/17 10:05:46;;;;;;;3.75;2.42;;;;;;;28.38;28.07;99371.81;4921329;29;20051;-92
2022/06/17 10:08:54;;;;;;;5.00;2.20;;;;;;;28.57;28.07;99386.56;4953580;29;20043;-94
2022/06/17 10:11:51;;;;;;;3.88;2.28;;;;;;;28.48;28.86;99377.78;4961644;28;20493;-96
2022/06/17 10:14:58;;;;;;;4.72;2.28;;;;;;;28.63;28.30;99392.53;4969419;28;20499;-95
2022/06/17 10:21:23;;;;;;;;;;;;;;;;;;;;;
2022/06/17 10:24:40;;;;;;;5.50;2.30;;;;;;;28.64;27.78;99392.13;4978806;28;20091;-95
2022/06/17 10:27:49;;;;;;;8.75;2.78;;;;;;;28.70;28.43;99393.34;4951580;28;20098;-96
2022/06/17 10:30:48;;;;;;;4.03;2.30;;;;;;;28.61;26.45;99387.38;4980337;28;20644;-95
2022/06/17 10:33:46;;;;;;;9.88;4.97;;;;;;;28.49;27.42;99384.91;4963181;28;20117;-95
2022/06/17 10:36:23;;;;;;;5.63;3.17;;;;;;;28.38;26.93;99379.31;4950270;28;20031;-95
2022/06/17 10:38:58;;;;;;;5.45;2.45;;;;;;;28.27;26.75;99359.91;4943804;28;20034;-94
2022/06/17 10:41:25;;;;;;;6.25;2.40;;;;;;;28.39;26.75;99356.00;4977285;28;20034;-91
2022/06/17 10:43:51;;;;;;;3.15;2.03;;;;;;;28.55;26.35;99362.00;4945042;28;20038;-90
2022/06/17 10:46:39;;;;;;;6.57;2.53;;;;;;;28.66;26.49;99375.91;4964272;28;20169;-92
2022/06/17 10:53:02;;;;;;;6.03;2.60;;;;;;;28.93;27.67;99361.72;4945468;29;20043;-95
2022/06/17 10:55:45;;;;;;;4.53;2.20;;;;;;;29.06;26.55;99360.16;4988296;28;20043;-94
2022/06/17 10:58:20;;;;;;;8.05;2.50;;;;;;;29.27;26.02;99386.38;4975198;28;20065;-92
2022/06/17 11:01:03;;;;;;;3.70;2.30;;;;;;;29.24;25.90;99376.88;4976691;28;20063;-92
2022/06/17 11:03:36;;;;;;;4.28;2.38;;;;;;;29.22;25.68;99368.16;4958347;28;20042;-89
2022/06/17 11:06:15;;;;;;;5.40;2.60;;;;;;;29.27;25.87;99369.72;4984126;28;20501;-91
2022/06/17 11:09:30;;;;;;;5.10;2.63;;;;;;;29.18;26.05;99347.94;4975754;28;20515;-94
2022/06/17 11:12:08;;;;;;;3.72;2.50;;;;;;;29.12;25.73;99358.63;4921965;29;20036;-94
2022/06/17 11:14:37;;;;;;;6.72;2.75;;;;;;;29.10;25.99;99357.41;4943514;28;20101;-94
2022/06/17 11:17:26;;;;;;;3.80;2.33;;;;;;;29.21;25.99;99361.78;4990481;28;20019;-92
2022/06/17 11:20:02;;;;;;;3.97;2.80;;;;;;;29.04;26.12;99354.22;4969503;28;20043;-93
2022/06/17 11:22:39;;;;;;;9.38;3.15;;;;;;;28.96;26.65;99370.03;4977351;28;20035;-93
2022/06/17 11:25:41;;;;;;;10.18;4.03;;;;;;;29.15;26.40;99360.59;4977663;28;20171;-94
2022/06/17 11:28:23;;;;;;;9.52;5.80;;;;;;;29.05;27.34;99353.03;4959793;28;20035;-91
2022/06/17 11:30:58;;;;;;;4.43;2.58;;;;;;;29.01;26.74;99332.81;4964451;28;20042;-93
2022/06/17 11:33:39;;;;;;;2.72;2.35;;;;;;;28.96;25.61;99341.53;4979596;28;20027;-95
2022/06/17 11:36:21;;;;;;;3.95;2.10;;;;;;;28.94;26.07;99350.25;4965285;28;20039;-94
2022/06/17 11:38:49;;;;;;;5.70;2.22;;;;;;;28.62;26.08;99330.78;4981962;28;20042;-94
2022/06/17 11:41:34;;;;;;;4.97;2.92;;;;;;;28.89;26.73;99341.50;4980679;28;20027;-94
2022/06/17 11:44:12;;;;;;;6.05;2.60;;;;;;;28.87;26.78;99336.38;4966282;28;20027;-94
2022/06/17 11:47:01;;;;;;;6.43;3.78;;;;;;;28.75;27.37;99329.22;4964733;28;20042;-94
2022/06/17 11:49:29;;;;;;;4.25;2.45;;;;;;;28.73;26.97;99309.41;4975838;28;20046;-92
2022/06/17 12:02:10;;;;;;;4.50;2.83;;;;;;;29.36;26.71;99323.75;4964709;28;20146;-92
2022/06/17 12:04:48;;;;;;;4.40;2.45;;;;;;;29.44;25.61;99345.94;4976613;28;20038;-93
2022/06/17 12:07:29;;;;;;;2.85;2.20;;;;;;;29.25;25.30;99330.50;4978945;28;20027;-94
2022/06/17 12:10:25;;;;;;;3.63;2.87;;;;;;;29.46;25.67;99333.25;4980178;28;20034;-95
2022/06/17 12:12:52;;;;;;;5.53;3.13;;;;;;;29.61;26.04;99332.06;4980092;28;20269;-95
2022/06/17 12:15:46;;;;;;;3.17;2.60;;;;;;;29.54;25.70;99320.97;4978132;28;20046;-95
2022/06/17 12:18:34;;;;;;;3.58;2.53;;;;;;;29.49;25.83;99321.38;4976447;28;20086;-93
2022/06/17 12:21:43;;;;;;;7.85;4.78;;;;;;;29.83;26.51;99331.28;4970835;28;20133;-93
2022/06/17 12:24:27;;;;;;;5.63;2.67;;;;;;;29.97;25.03;99331.25;4988891;28;20496;-94
2022/06/17 12:26:59;;;;;;;3.58;2.10;;;;;;;29.85;25.08;99321.34;4997727;28;20503;-91
2022/06/17 12:29:27;;;;;;;6.28;2.40;;;;;;;29.75;24.69;99320.16;4997555;28;20117;-93
2022/06/17 12:32:26;;;;;;;3.20;2.20;;;;;;;29.90;24.35;99315.38;4979186;28;20396;-92
2022/06/17 12:34:58;;;;;;;9.65;5.40;;;;;;;30.13;25.66;99309.38;4982880;28;20014;-93
2022/06/17 12:37:26;;;;;;;4.57;2.85;;;;;;;30.42;25.55;99323.94;4979148;28;20034;-92